Ottoman Nobility — TCDA2 — position and weather

sailwx.info

Track history (hours):
 
Tides and Currents Weather Stations Pressure Air Temp Water Temp Dewpoint Dewpoint Depression Visibility Wind Speed Wind Dir Waves Ship Positions

Ottoman Nobility

Last reported at 2017-Feb-21 11:33 UTC. Time now 2017-Feb-22 06:45 UTC.
Position N 13°37' W 017°39'.

; draft 8.8 m.

Type: Ship. MMSI: 271000773.

Date/timePositionNaut miles runAvg speedWind from/ knotsBaromVisibWave heightAir tempDewpointWater temp
2017-Feb-21 11:33N 13°37' W 017°39'2713.8
2017-Feb-21 09:33N 14°05' W 017°43'1613.4
2017-Feb-21 08:24N 14°20' W 017°45'2913.3
2017-Feb-21 06:14N 14°49' W 017°48'1113.3
2017-Feb-21 05:24N 14°60' W 017°48'1213.6
2017-Feb-21 04:33N 15°11' W 017°47'1313.3
2017-Feb-21 03:33N 15°25' W 017°46'1413.7
2017-Feb-21 02:33N 15°38' W 017°47'4713.4
2017-Feb-20 23:03N 16°25' W 017°46'  
2017-Feb-18 10:33N 29°05' W 014°28'1413.6
2017-Feb-18 09:33N 29°15' W 014°18'1713.6
2017-Feb-18 08:19N 29°28' W 014°07'4013.6
2017-Feb-18 05:24N 29°59' W 013°38'1313.7
2017-Feb-18 04:27N 30°09' W 013°28'1213.7
2017-Feb-18 03:33N 30°19' W 013°20'1313.5
2017-Feb-18 02:33N 30°30' W 013°10'1813.8
2017-Feb-18 01:16N 30°44' W 012°57'1013.6
2017-Feb-18 00:33N 30°51' W 012°50'1413.5
2017-Feb-17 23:33N 31°02' W 012°40'1713.4
2017-Feb-17 22:18N 31°15' W 012°28'2513.7
2017-Feb-17 20:29N 31°34' W 012°09'2813.7
2017-Feb-17 18:28N 31°56' W 011°49'2613.7
2017-Feb-17 16:33N 32°16' W 011°30'1313.6
2017-Feb-17 15:33N 32°27' W 011°20'1413.7
2017-Feb-17 14:32N 32°38' W 011°09'10013.5
2017-Feb-17 07:08N 33°56' W 009°54'2113.6
2017-Feb-17 05:33N 34°12' W 009°38'1613.6
2017-Feb-17 04:25N 34°25' W 009°26'2513.6
2017-Feb-17 02:33N 34°44' W 009°07'  
Track history (hours):
 
Tides and Currents Weather Stations Pressure Air Temp Water Temp Dewpoint Dewpoint Depression Visibility Wind Speed Wind Dir Waves Ship Positions

Ottoman Nobility

Last reported at 2017-Feb-21 11:33 UTC. Time now 2017-Feb-22 06:45 UTC.
Position N 13°37' W 017°39'.

; draft 8.8 m.

Type: Ship. MMSI: 271000773.

Date/timePositionNaut miles runAvg speedWind from/ knotsBaromVisibWave heightAir tempDewpointWater temp
2017-Feb-21 11:33N 13°37' W 017°39'2713.8
2017-Feb-21 09:33N 14°05' W 017°43'1613.4
2017-Feb-21 08:24N 14°20' W 017°45'2913.3
2017-Feb-21 06:14N 14°49' W 017°48'1113.3
2017-Feb-21 05:24N 14°60' W 017°48'1213.6
2017-Feb-21 04:33N 15°11' W 017°47'1313.3
2017-Feb-21 03:33N 15°25' W 017°46'1413.7
2017-Feb-21 02:33N 15°38' W 017°47'4713.4
2017-Feb-20 23:03N 16°25' W 017°46'  
2017-Feb-18 10:33N 29°05' W 014°28'1413.6
2017-Feb-18 09:33N 29°15' W 014°18'1713.6
2017-Feb-18 08:19N 29°28' W 014°07'4013.6
2017-Feb-18 05:24N 29°59' W 013°38'1313.7
2017-Feb-18 04:27N 30°09' W 013°28'1213.7
2017-Feb-18 03:33N 30°19' W 013°20'1313.5
2017-Feb-18 02:33N 30°30' W 013°10'1813.8
2017-Feb-18 01:16N 30°44' W 012°57'1013.6
2017-Feb-18 00:33N 30°51' W 012°50'1413.5
2017-Feb-17 23:33N 31°02' W 012°40'1713.4
2017-Feb-17 22:18N 31°15' W 012°28'2513.7
2017-Feb-17 20:29N 31°34' W 012°09'2813.7
2017-Feb-17 18:28N 31°56' W 011°49'2613.7
2017-Feb-17 16:33N 32°16' W 011°30'1313.6
2017-Feb-17 15:33N 32°27' W 011°20'1413.7
2017-Feb-17 14:32N 32°38' W 011°09'10013.5
2017-Feb-17 07:08N 33°56' W 009°54'2113.6
2017-Feb-17 05:33N 34°12' W 009°38'1613.6
2017-Feb-17 04:25N 34°25' W 009°26'2513.6
2017-Feb-17 02:33N 34°44' W 009°07'  

Dump ship's entire track history